sensor_id;sensor_type;location;lat;lon;timestamp;pressure;altitude;pressure_sealevel;temperature
71640;BMP280;60912;48.968;10.124;2023-12-28T00:02:20;96626.03;;;2.80
71640;BMP280;60912;48.968;10.124;2023-12-28T00:08:00;96647.06;;;2.80
71640;BMP280;60912;48.968;10.124;2023-12-28T00:10:32;96660.44;;;2.78
71640;BMP280;60912;48.968;10.124;2023-12-28T00:13:00;96657.25;;;2.53
71640;BMP280;60912;48.968;10.124;2023-12-28T00:15:26;96656.50;;;2.22
71640;BMP280;60912;48.968;10.124;2023-12-28T00:17:54;96651.44;;;2.09
71640;BMP280;60912;48.968;10.124;2023-12-28T00:20:46;96656.00;;;1.97
71640;BMP280;60912;48.968;10.124;2023-12-28T00:23:25;96651.97;;;2.13
71640;BMP280;60912;48.968;10.124;2023-12-28T00:26:06;96644.81;;;2.15
71640;BMP280;60912;48.968;10.124;2023-12-28T00:28:43;96646.31;;;2.16
71640;BMP280;60912;48.968;10.124;2023-12-28T00:31:14;96635.94;;;2.15
71640;BMP280;60912;48.968;10.124;2023-12-28T00:33:45;96640.84;;;2.11
71640;BMP280;60912;48.968;10.124;2023-12-28T00:36:14;96637.47;;;2.22
71640;BMP280;60912;48.968;10.124;2023-12-28T00:38:57;96645.53;;;2.42
71640;BMP280;60912;48.968;10.124;2023-12-28T00:41:25;96647.13;;;2.54
71640;BMP280;60912;48.968;10.124;2023-12-28T00:43:55;96649.16;;;2.59
71640;BMP280;60912;48.968;10.124;2023-12-28T00:46:25;96640.16;;;2.47
71640;BMP280;60912;48.968;10.124;2023-12-28T00:48:56;96643.47;;;2.26
71640;BMP280;60912;48.968;10.124;2023-12-28T00:51:44;96654.06;;;2.24
71640;BMP280;60912;48.968;10.124;2023-12-28T00:54:19;96646.59;;;2.18
71640;BMP280;60912;48.968;10.124;2023-12-28T00:56:54;96647.97;;;2.08
71640;BMP280;60912;48.968;10.124;2023-12-28T00:59:22;96656.88;;;2.09
71640;BMP280;60912;48.968;10.124;2023-12-28T01:01:53;96650.63;;;2.03
71640;BMP280;60912;48.968;10.124;2023-12-28T01:04:19;96648.81;;;1.94
71640;BMP280;60912;48.968;10.124;2023-12-28T01:06:49;96650.03;;;1.93
71640;BMP280;60912;48.968;10.124;2023-12-28T01:09:18;96660.19;;;2.18
71640;BMP280;60912;48.968;10.124;2023-12-28T01:12:04;96662.28;;;2.35
71640;BMP280;60912;48.968;10.124;2023-12-28T01:14:57;96663.25;;;2.32
71640;BMP280;60912;48.968;10.124;2023-12-28T01:17:37;96655.69;;;2.15
71640;BMP280;60912;48.968;10.124;2023-12-28T01:20:06;96668.78;;;1.91
71640;BMP280;60912;48.968;10.124;2023-12-28T01:22:47;96674.34;;;1.76
71640;BMP280;60912;48.968;10.124;2023-12-28T01:25:28;96677.53;;;1.75
71640;BMP280;60912;48.968;10.124;2023-12-28T01:28:17;96671.88;;;1.78
71640;BMP280;60912;48.968;10.124;2023-12-28T01:30:47;96676.91;;;1.86
71640;BMP280;60912;48.968;10.124;2023-12-28T01:33:20;96665.38;;;1.96
71640;BMP280;60912;48.968;10.124;2023-12-28T01:35:52;96649.19;;;2.07
71640;BMP280;60912;48.968;10.124;2023-12-28T01:38:17;96647.28;;;2.13
71640;BMP280;60912;48.968;10.124;2023-12-28T01:41:06;96661.06;;;2.36
71640;BMP280;60912;48.968;10.124;2023-12-28T01:44:07;96652.91;;;2.36
71640;BMP280;60912;48.968;10.124;2023-12-28T01:46:42;96650.78;;;2.45
71640;BMP280;60912;48.968;10.124;2023-12-28T01:49:23;96660.22;;;2.50
71640;BMP280;60912;48.968;10.124;2023-12-28T01:51:57;96664.19;;;2.54
71640;BMP280;60912;48.968;10.124;2023-12-28T01:54:27;96665.47;;;2.59
71640;BMP280;60912;48.968;10.124;2023-12-28T01:57:06;96672.69;;;2.68
71640;BMP280;60912;48.968;10.124;2023-12-28T02:02:26;96664.78;;;2.64
71640;BMP280;60912;48.968;10.124;2023-12-28T02:04:53;96668.00;;;2.68
71640;BMP280;60912;48.968;10.124;2023-12-28T02:07:29;96668.22;;;2.65
71640;BMP280;60912;48.968;10.124;2023-12-28T02:10:08;96662.50;;;2.57
71640;BMP280;60912;48.968;10.124;2023-12-28T02:15:42;96677.66;;;2.38
71640;BMP280;60912;48.968;10.124;2023-12-28T02:18:22;96668.19;;;2.28
71640;BMP280;60912;48.968;10.124;2023-12-28T02:21:01;96673.25;;;2.40
71640;BMP280;60912;48.968;10.124;2023-12-28T02:23:45;96675.53;;;2.47
71640;BMP280;60912;48.968;10.124;2023-12-28T02:26:19;96679.66;;;2.43
71640;BMP280;60912;48.968;10.124;2023-12-28T02:28:49;96679.19;;;2.44
71640;BMP280;60912;48.968;10.124;2023-12-28T02:31:39;96678.31;;;2.53
71640;BMP280;60912;48.968;10.124;2023-12-28T02:34:25;96681.09;;;2.64
71640;BMP280;60912;48.968;10.124;2023-12-28T02:36:56;96684.59;;;2.70
71640;BMP280;60912;48.968;10.124;2023-12-28T02:39:41;96679.88;;;2.65
71640;BMP280;60912;48.968;10.124;2023-12-28T02:42:11;96687.03;;;2.68
71640;BMP280;60912;48.968;10.124;2023-12-28T02:44:37;96670.72;;;2.63
71640;BMP280;60912;48.968;10.124;2023-12-28T02:47:11;96678.47;;;2.75
71640;BMP280;60912;48.968;10.124;2023-12-28T02:49:45;96680.47;;;2.80
71640;BMP280;60912;48.968;10.124;2023-12-28T02:52:23;96686.78;;;2.97
71640;BMP280;60912;48.968;10.124;2023-12-28T02:54:52;96669.97;;;2.99
71640;BMP280;60912;48.968;10.124;2023-12-28T02:57:35;96678.50;;;3.18
71640;BMP280;60912;48.968;10.124;2023-12-28T03:00:13;96691.72;;;3.36
71640;BMP280;60912;48.968;10.124;2023-12-28T03:02:39;96684.09;;;3.46
71640;BMP280;60912;48.968;10.124;2023-12-28T03:05:10;96697.75;;;3.57
71640;BMP280;60912;48.968;10.124;2023-12-28T03:07:38;96685.59;;;3.58
71640;BMP280;60912;48.968;10.124;2023-12-28T03:10:08;96691.09;;;3.69
71640;BMP280;60912;48.968;10.124;2023-12-28T03:12:36;96682.47;;;3.76
71640;BMP280;60912;48.968;10.124;2023-12-28T03:15:05;96679.00;;;3.81
71640;BMP280;60912;48.968;10.124;2023-12-28T03:17:31;96674.09;;;3.91
71640;BMP280;60912;48.968;10.124;2023-12-28T03:20:03;96673.09;;;3.94
71640;BMP280;60912;48.968;10.124;2023-12-28T03:22:42;96676.31;;;3.98
71640;BMP280;60912;48.968;10.124;2023-12-28T03:25:14;96676.31;;;3.98
71640;BMP280;60912;48.968;10.124;2023-12-28T03:27:39;96674.38;;;4.04
71640;BMP280;60912;48.968;10.124;2023-12-28T03:30:13;96688.25;;;4.12
71640;BMP280;60912;48.968;10.124;2023-12-28T03:32:39;96671.91;;;4.12
71640;BMP280;60912;48.968;10.124;2023-12-28T03:35:07;96669.91;;;4.12
71640;BMP280;60912;48.968;10.124;2023-12-28T03:37:33;96679.81;;;4.09
71640;BMP280;60912;48.968;10.124;2023-12-28T03:39:58;96674.88;;;4.14
71640;BMP280;60912;48.968;10.124;2023-12-28T03:42:24;96674.13;;;4.13
71640;BMP280;60912;48.968;10.124;2023-12-28T03:44:54;96680.31;;;4.19
71640;BMP280;60912;48.968;10.124;2023-12-28T03:47:24;96682.09;;;4.28
71640;BMP280;60912;48.968;10.124;2023-12-28T03:49:50;96688.56;;;4.30
71640;BMP280;60912;48.968;10.124;2023-12-28T03:52:21;96679.09;;;4.31
71640;BMP280;60912;48.968;10.124;2023-12-28T03:54:55;96680.09;;;4.34
71640;BMP280;60912;48.968;10.124;2023-12-28T03:57:31;96689.78;;;4.40
71640;BMP280;60912;48.968;10.124;2023-12-28T04:00:08;96687.81;;;4.52
71640;BMP280;60912;48.968;10.124;2023-12-28T04:02:57;96697.97;;;4.63
71640;BMP280;60912;48.968;10.124;2023-12-28T04:05:24;96686.28;;;4.57
71640;BMP280;60912;48.968;10.124;2023-12-28T04:07:58;96678.59;;;4.61
71640;BMP280;60912;48.968;10.124;2023-12-28T04:10:32;96693.25;;;4.69
71640;BMP280;60912;48.968;10.124;2023-12-28T04:13:05;96673.16;;;4.72
71640;BMP280;60912;48.968;10.124;2023-12-28T04:15:41;96677.84;;;4.77
71640;BMP280;60912;48.968;10.124;2023-12-28T04:18:16;96679.59;;;4.80
71640;BMP280;60912;48.968;10.124;2023-12-28T04:20:50;96679.59;;;4.85
71640;BMP280;60912;48.968;10.124;2023-12-28T04:23:25;96677.09;;;4.93
71640;BMP280;60912;48.968;10.124;2023-12-28T04:26:02;96673.34;;;5.02
71640;BMP280;60912;48.968;10.124;2023-12-28T04:28:42;96661.66;;;5.07
71640;BMP280;60912;48.968;10.124;2023-12-28T04:31:13;96661.91;;;5.14
71640;BMP280;60912;48.968;10.124;2023-12-28T04:33:44;96657.16;;;5.20
71640;BMP280;60912;48.968;10.124;2023-12-28T04:36:13;96656.63;;;5.27
71640;BMP280;60912;48.968;10.124;2023-12-28T04:38:44;96665.06;;;5.41
71640;BMP280;60912;48.968;10.124;2023-12-28T04:41:15;96660.03;;;5.45
71640;BMP280;60912;48.968;10.124;2023-12-28T04:43:43;96648.59;;;5.46
71640;BMP280;60912;48.968;10.124;2023-12-28T04:46:11;96649.09;;;5.45
71640;BMP280;60912;48.968;10.124;2023-12-28T04:49:00;96651.59;;;5.54
71640;BMP280;60912;48.968;10.124;2023-12-28T04:51:28;96654.50;;;5.67
71640;BMP280;60912;48.968;10.124;2023-12-28T04:54:16;96650.44;;;5.74
71640;BMP280;60912;48.968;10.124;2023-12-28T04:56:54;96649.91;;;5.86
71640;BMP280;60912;48.968;10.124;2023-12-28T04:59:25;96656.00;;;6.03
71640;BMP280;60912;48.968;10.124;2023-12-28T05:01:53;96663.88;;;6.18
71640;BMP280;60912;48.968;10.124;2023-12-28T05:04:23;96662.75;;;6.32
71640;BMP280;60912;48.968;10.124;2023-12-28T05:07:00;96664.44;;;6.41
71640;BMP280;60912;48.968;10.124;2023-12-28T05:09:36;96656.69;;;6.45
71640;BMP280;60912;48.968;10.124;2023-12-28T05:12:14;96662.84;;;6.51
71640;BMP280;60912;48.968;10.124;2023-12-28T05:14:52;96658.81;;;6.58
71640;BMP280;60912;48.968;10.124;2023-12-28T05:17:22;96659.44;;;6.69
71640;BMP280;60912;48.968;10.124;2023-12-28T05:20:31;96652.94;;;6.72
71640;BMP280;60912;48.968;10.124;2023-12-28T05:23:15;96657.53;;;6.88
71640;BMP280;60912;48.968;10.124;2023-12-28T05:28:54;96644.28;;;7.17
71640;BMP280;60912;48.968;10.124;2023-12-28T05:34:16;96654.50;;;7.35
71640;BMP280;60912;48.968;10.124;2023-12-28T05:36:46;96665.34;;;7.46
71640;BMP280;60912;48.968;10.124;2023-12-28T05:39:26;96665.19;;;7.57
71640;BMP280;60912;48.968;10.124;2023-12-28T05:41:55;96683.06;;;7.64
71640;BMP280;60912;48.968;10.124;2023-12-28T05:44:37;96689.22;;;7.70
71640;BMP280;60912;48.968;10.124;2023-12-28T05:47:13;96686.41;;;7.76
71640;BMP280;60912;48.968;10.124;2023-12-28T05:49:45;96692.47;;;7.87
71640;BMP280;60912;48.968;10.124;2023-12-28T05:52:14;96697.22;;;7.87
71640;BMP280;60912;48.968;10.124;2023-12-28T05:54:49;96690.25;;;7.86
71640;BMP280;60912;48.968;10.124;2023-12-28T05:57:27;96700.84;;;7.95
71640;BMP280;60912;48.968;10.124;2023-12-28T06:00:00;96704.19;;;8.06
71640;BMP280;60912;48.968;10.124;2023-12-28T06:02:44;96704.94;;;8.07
71640;BMP280;60912;48.968;10.124;2023-12-28T06:05:39;96706.53;;;8.16
71640;BMP280;60912;48.968;10.124;2023-12-28T06:08:22;96715.19;;;8.20
71640;BMP280;60912;48.968;10.124;2023-12-28T06:10:56;96719.06;;;8.30
71640;BMP280;60912;48.968;10.124;2023-12-28T06:13:37;96728.47;;;8.34
71640;BMP280;60912;48.968;10.124;2023-12-28T06:16:10;96728.31;;;8.45
71640;BMP280;60912;48.968;10.124;2023-12-28T06:21:26;96731.94;;;8.67
71640;BMP280;60912;48.968;10.124;2023-12-28T06:23:54;96737.25;;;8.78
71640;BMP280;60912;48.968;10.124;2023-12-28T06:26:25;96756.06;;;8.87
71640;BMP280;60912;48.968;10.124;2023-12-28T06:29:09;96740.84;;;8.86
71640;BMP280;60912;48.968;10.124;2023-12-28T06:32:10;96729.22;;;8.80
71640;BMP280;60912;48.968;10.124;2023-12-28T06:34:41;96746.34;;;8.86
71640;BMP280;60912;48.968;10.124;2023-12-28T06:37:35;96747.63;;;8.85
71640;BMP280;60912;48.968;10.124;2023-12-28T06:40:06;96738.22;;;8.93
71640;BMP280;60912;48.968;10.124;2023-12-28T06:45:40;96751.00;;;8.91
71640;BMP280;60912;48.968;10.124;2023-12-28T06:48:34;96735.16;;;8.84
71640;BMP280;60912;48.968;10.124;2023-12-28T06:51:21;96746.56;;;8.88
71640;BMP280;60912;48.968;10.124;2023-12-28T06:53:55;96748.06;;;8.89
71640;BMP280;60912;48.968;10.124;2023-12-28T06:56:32;96759.47;;;8.93
71640;BMP280;60912;48.968;10.124;2023-12-28T06:59:06;96758.19;;;8.81
71640;BMP280;60912;48.968;10.124;2023-12-28T07:01:41;96763.03;;;8.75
71640;BMP280;60912;48.968;10.124;2023-12-28T07:04:18;96770.22;;;8.78
71640;BMP280;60912;48.968;10.124;2023-12-28T07:07:00;96774.66;;;8.81
71640;BMP280;60912;48.968;10.124;2023-12-28T07:09:31;96754.47;;;8.78
71640;BMP280;60912;48.968;10.124;2023-12-28T07:12:00;96760.91;;;8.81
71640;BMP280;60912;48.968;10.124;2023-12-28T07:14:25;96753.63;;;8.70
71640;BMP280;60912;48.968;10.124;2023-12-28T07:16:50;96755.69;;;8.64
71640;BMP280;60912;48.968;10.124;2023-12-28T07:19:22;96755.94;;;8.66
71640;BMP280;60912;48.968;10.124;2023-12-28T07:21:47;96746.34;;;8.73
71640;BMP280;60912;48.968;10.124;2023-12-28T07:24:13;96740.09;;;8.72
71640;BMP280;60912;48.968;10.124;2023-12-28T07:27:07;96762.63;;;8.84
71640;BMP280;60912;48.968;10.124;2023-12-28T07:29:33;96759.69;;;8.95
71640;BMP280;60912;48.968;10.124;2023-12-28T07:35:13;96770.47;;;8.93
71640;BMP280;60912;48.968;10.124;2023-12-28T07:37:44;96770.56;;;9.01
71640;BMP280;60912;48.968;10.124;2023-12-28T07:40:15;96775.47;;;9.08
71640;BMP280;60912;48.968;10.124;2023-12-28T07:42:59;96788.47;;;9.07
71640;BMP280;60912;48.968;10.124;2023-12-28T07:45:33;96787.22;;;9.08
71640;BMP280;60912;48.968;10.124;2023-12-28T07:48:14;96796.22;;;9.09
71640;BMP280;60912;48.968;10.124;2023-12-28T07:51:09;96785.28;;;9.03
71640;BMP280;60912;48.968;10.124;2023-12-28T07:53:44;96794.91;;;8.97
71640;BMP280;60912;48.968;10.124;2023-12-28T07:56:41;96794.69;;;8.94
71640;BMP280;60912;48.968;10.124;2023-12-28T07:59:12;96789.94;;;8.95
71640;BMP280;60912;48.968;10.124;2023-12-28T08:01:54;96803.75;;;8.89
71640;BMP280;60912;48.968;10.124;2023-12-28T08:04:23;96798.00;;;8.74
71640;BMP280;60912;48.968;10.124;2023-12-28T08:06:55;96801.50;;;8.75
71640;BMP280;60912;48.968;10.124;2023-12-28T08:09:30;96805.63;;;8.81
71640;BMP280;60912;48.968;10.124;2023-12-28T08:11:58;96806.09;;;8.85
71640;BMP280;60912;48.968;10.124;2023-12-28T08:14:32;96821.50;;;8.88
71640;BMP280;60912;48.968;10.124;2023-12-28T08:17:23;96808.28;;;8.87
71640;BMP280;60912;48.968;10.124;2023-12-28T08:19:57;96813.78;;;8.87
71640;BMP280;60912;48.968;10.124;2023-12-28T08:22:26;96815.50;;;8.90
71640;BMP280;60912;48.968;10.124;2023-12-28T08:27:49;96818.03;;;8.88
71640;BMP280;60912;48.968;10.124;2023-12-28T08:30:20;96825.44;;;8.93
71640;BMP280;60912;48.968;10.124;2023-12-28T08:32:55;96818.69;;;8.94
71640;BMP280;60912;48.968;10.124;2023-12-28T08:35:41;96815.94;;;8.94
71640;BMP280;60912;48.968;10.124;2023-12-28T08:38:12;96796.78;;;8.88
71640;BMP280;60912;48.968;10.124;2023-12-28T08:40:47;96803.22;;;8.91
71640;BMP280;60912;48.968;10.124;2023-12-28T08:43:26;96802.19;;;8.94
71640;BMP280;60912;48.968;10.124;2023-12-28T08:46:10;96793.94;;;8.94
71640;BMP280;60912;48.968;10.124;2023-12-28T08:48:56;96807.16;;;8.96
71640;BMP280;60912;48.968;10.124;2023-12-28T08:51:29;96818.16;;;8.96
71640;BMP280;60912;48.968;10.124;2023-12-28T08:54:05;96804.50;;;8.90
71640;BMP280;60912;48.968;10.124;2023-12-28T08:56:40;96815.97;;;9.07
71640;BMP280;60912;48.968;10.124;2023-12-28T08:59:09;96805.19;;;9.09
71640;BMP280;60912;48.968;10.124;2023-12-28T09:01:42;96805.50;;;9.19
71640;BMP280;60912;48.968;10.124;2023-12-28T09:04:13;96796.97;;;9.22
71640;BMP280;60912;48.968;10.124;2023-12-28T09:06:48;96795.16;;;9.25
71640;BMP280;60912;48.968;10.124;2023-12-28T09:09:16;96799.28;;;9.31
71640;BMP280;60912;48.968;10.124;2023-12-28T09:12:04;96796.75;;;9.33
71640;BMP280;60912;48.968;10.124;2023-12-28T09:17:44;96803.38;;;9.38
71640;BMP280;60912;48.968;10.124;2023-12-28T09:23:49;96800.97;;;9.48
71640;BMP280;60912;48.968;10.124;2023-12-28T09:26:36;96797.81;;;9.44
71640;BMP280;60912;48.968;10.124;2023-12-28T09:29:01;96804.16;;;9.52
71640;BMP280;60912;48.968;10.124;2023-12-28T09:31:32;96808.81;;;9.57
71640;BMP280;60912;48.968;10.124;2023-12-28T09:34:35;96810.28;;;9.58
71640;BMP280;60912;48.968;10.124;2023-12-28T09:37:08;96812.53;;;9.72
71640;BMP280;60912;48.968;10.124;2023-12-28T09:39:42;96800.78;;;9.72
71640;BMP280;60912;48.968;10.124;2023-12-28T09:42:21;96803.16;;;9.75
71640;BMP280;60912;48.968;10.124;2023-12-28T09:44:55;96804.44;;;9.88
71640;BMP280;60912;48.968;10.124;2023-12-28T09:47:48;96800.75;;;9.85
71640;BMP280;60912;48.968;10.124;2023-12-28T09:50:31;96798.59;;;9.91
71640;BMP280;60912;48.968;10.124;2023-12-28T09:53:00;96778.06;;;9.92
71640;BMP280;60912;48.968;10.124;2023-12-28T09:55:45;96794.78;;;10.07
71640;BMP280;60912;48.968;10.124;2023-12-28T09:58:24;96781.31;;;10.04
71640;BMP280;60912;48.968;10.124;2023-12-28T10:00:59;96785.28;;;9.95
71640;BMP280;60912;48.968;10.124;2023-12-28T10:03:50;96782.31;;;9.93
71640;BMP280;60912;48.968;10.124;2023-12-28T10:06:24;96787.13;;;10.00
71640;BMP280;60912;48.968;10.124;2023-12-28T10:08:53;96783.09;;;10.14
71640;BMP280;60912;48.968;10.124;2023-12-28T10:14:55;96779.28;;;10.38
71640;BMP280;60912;48.968;10.124;2023-12-28T10:17:23;96778.69;;;10.53
71640;BMP280;60912;48.968;10.124;2023-12-28T10:20:07;96777.50;;;10.61
71640;BMP280;60912;48.968;10.124;2023-12-28T10:22:36;96782.06;;;10.59
71640;BMP280;60912;48.968;10.124;2023-12-28T10:25:28;96778.69;;;10.53
71640;BMP280;60912;48.968;10.124;2023-12-28T10:28:10;96784.88;;;10.66
71640;BMP280;60912;48.968;10.124;2023-12-28T10:31:08;96778.00;;;10.73
71640;BMP280;60912;48.968;10.124;2023-12-28T10:33:38;96776.41;;;10.85
71640;BMP280;60912;48.968;10.124;2023-12-28T10:36:20;96776.06;;;10.89
71640;BMP280;60912;48.968;10.124;2023-12-28T10:38:56;96773.50;;;10.91
71640;BMP280;60912;48.968;10.124;2023-12-28T10:41:49;96779.00;;;10.91
71640;BMP280;60912;48.968;10.124;2023-12-28T10:44:30;96788.28;;;11.01
71640;BMP280;60912;48.968;10.124;2023-12-28T10:50:30;96775.31;;;11.09
71640;BMP280;60912;48.968;10.124;2023-12-28T10:53:54;96781.06;;;11.19
71640;BMP280;60912;48.968;10.124;2023-12-28T10:56:52;96779.38;;;11.16
71640;BMP280;60912;48.968;10.124;2023-12-28T11:02:29;96771.91;;;11.24
71640;BMP280;60912;48.968;10.124;2023-12-28T11:05:19;96780.53;;;11.20
71640;BMP280;60912;48.968;10.124;2023-12-28T11:08:15;96786.47;;;11.32
71640;BMP280;60912;48.968;10.124;2023-12-28T11:10:53;96771.94;;;11.31
71640;BMP280;60912;48.968;10.124;2023-12-28T11:13:28;96778.69;;;11.23
71640;BMP280;60912;48.968;10.124;2023-12-28T11:16:10;96775.19;;;11.22
71640;BMP280;60912;48.968;10.124;2023-12-28T11:19:24;96760.88;;;11.24
71640;BMP280;60912;48.968;10.124;2023-12-28T11:24:41;96774.19;;;11.40
71640;BMP280;60912;48.968;10.124;2023-12-28T11:27:13;96766.28;;;11.37
71640;BMP280;60912;48.968;10.124;2023-12-28T11:29:47;96766.88;;;11.43
71640;BMP280;60912;48.968;10.124;2023-12-28T11:32:22;96763.97;;;11.56
71640;BMP280;60912;48.968;10.124;2023-12-28T11:35:16;96763.09;;;11.61
71640;BMP280;60912;48.968;10.124;2023-12-28T11:37:48;96744.19;;;11.73
71640;BMP280;60912;48.968;10.124;2023-12-28T11:40:31;96750.31;;;11.86
71640;BMP280;60912;48.968;10.124;2023-12-28T11:46:28;96753.47;;;12.06
71640;BMP280;60912;48.968;10.124;2023-12-28T11:49:15;96745.78;;;12.27
71640;BMP280;60912;48.968;10.124;2023-12-28T11:52:02;96743.22;;;12.21
71640;BMP280;60912;48.968;10.124;2023-12-28T11:54:30;96732.31;;;12.16
71640;BMP280;60912;48.968;10.124;2023-12-28T11:57:41;96736.91;;;12.06
71640;BMP280;60912;48.968;10.124;2023-12-28T12:00:26;96736.50;;;11.94
71640;BMP280;60912;48.968;10.124;2023-12-28T12:03:17;96737.16;;;11.64
71640;BMP280;60912;48.968;10.124;2023-12-28T12:06:09;96737.38;;;11.74
71640;BMP280;60912;48.968;10.124;2023-12-28T12:08:41;96732.44;;;11.80
71640;BMP280;60912;48.968;10.124;2023-12-28T12:17:57;96737.59;;;11.91
71640;BMP280;60912;48.968;10.124;2023-12-28T12:20:29;96725.47;;;11.86
71640;BMP280;60912;48.968;10.124;2023-12-28T12:23:17;96729.84;;;11.89
71640;BMP280;60912;48.968;10.124;2023-12-28T12:25:51;96731.31;;;11.75
71640;BMP280;60912;48.968;10.124;2023-12-28T12:34:41;96713.97;;;11.67
71640;BMP280;60912;48.968;10.124;2023-12-28T12:37:12;96723.50;;;11.59
71640;BMP280;60912;48.968;10.124;2023-12-28T12:39:54;96726.59;;;11.47
71640;BMP280;60912;48.968;10.124;2023-12-28T12:42:28;96726.38;;;11.38
71640;BMP280;60912;48.968;10.124;2023-12-28T12:44:59;96722.72;;;11.43
71640;BMP280;60912;48.968;10.124;2023-12-28T12:47:55;96712.06;;;11.47
71640;BMP280;60912;48.968;10.124;2023-12-28T12:50:25;96715.78;;;11.57
71640;BMP280;60912;48.968;10.124;2023-12-28T12:53:16;96716.13;;;11.53
71640;BMP280;60912;48.968;10.124;2023-12-28T12:56:00;96719.81;;;11.48
71640;BMP280;60912;48.968;10.124;2023-12-28T12:58:46;96714.81;;;11.47
71640;BMP280;60912;48.968;10.124;2023-12-28T13:01:19;96706.59;;;11.62
71640;BMP280;60912;48.968;10.124;2023-12-28T13:03:47;96696.63;;;11.59
71640;BMP280;60912;48.968;10.124;2023-12-28T13:06:22;96714.22;;;11.41
71640;BMP280;60912;48.968;10.124;2023-12-28T13:08:55;96704.34;;;11.53
71640;BMP280;60912;48.968;10.124;2023-12-28T13:11:36;96699.22;;;11.57
71640;BMP280;60912;48.968;10.124;2023-12-28T13:14:12;96706.22;;;11.58
71640;BMP280;60912;48.968;10.124;2023-12-28T13:16:38;96705.28;;;11.56
71640;BMP280;60912;48.968;10.124;2023-12-28T13:19:07;96703.25;;;11.56
71640;BMP280;60912;48.968;10.124;2023-12-28T13:21:42;96702.13;;;11.51
71640;BMP280;60912;48.968;10.124;2023-12-28T13:24:08;96695.50;;;11.47
71640;BMP280;60912;48.968;10.124;2023-12-28T13:26:44;96709.13;;;11.52
71640;BMP280;60912;48.968;10.124;2023-12-28T13:29:18;96688.44;;;11.31
71640;BMP280;60912;48.968;10.124;2023-12-28T13:32:07;96697.13;;;11.35
71640;BMP280;60912;48.968;10.124;2023-12-28T13:34:45;96696.56;;;11.36
71640;BMP280;60912;48.968;10.124;2023-12-28T13:37:25;96689.25;;;11.54
71640;BMP280;60912;48.968;10.124;2023-12-28T13:40:14;96695.50;;;11.54
71640;BMP280;60912;48.968;10.124;2023-12-28T13:42:52;96695.19;;;11.58
71640;BMP280;60912;48.968;10.124;2023-12-28T13:45:48;96690.41;;;11.66
71640;BMP280;60912;48.968;10.124;2023-12-28T13:48:40;96695.28;;;11.45
71640;BMP280;60912;48.968;10.124;2023-12-28T13:51:43;96708.25;;;11.58
71640;BMP280;60912;48.968;10.124;2023-12-28T13:54:13;96708.41;;;11.60
71640;BMP280;60912;48.968;10.124;2023-12-28T13:56:56;96705.88;;;11.62
71640;BMP280;60912;48.968;10.124;2023-12-28T13:59:52;96691.69;;;11.58
71640;BMP280;60912;48.968;10.124;2023-12-28T14:05:44;96694.38;;;11.42
71640;BMP280;60912;48.968;10.124;2023-12-28T14:08:15;96705.56;;;11.37
71640;BMP280;60912;48.968;10.124;2023-12-28T14:11:16;96705.16;;;11.25
71640;BMP280;60912;48.968;10.124;2023-12-28T14:17:28;96715.34;;;11.38
71640;BMP280;60912;48.968;10.124;2023-12-28T14:20:39;96718.22;;;11.25
71640;BMP280;60912;48.968;10.124;2023-12-28T14:27:12;96721.94;;;11.06
71640;BMP280;60912;48.968;10.124;2023-12-28T14:30:14;96715.47;;;10.96
71640;BMP280;60912;48.968;10.124;2023-12-28T14:33:00;96712.81;;;10.83
71640;BMP280;60912;48.968;10.124;2023-12-28T14:35:54;96714.09;;;10.82
71640;BMP280;60912;48.968;10.124;2023-12-28T14:38:32;96714.91;;;10.70
71640;BMP280;60912;48.968;10.124;2023-12-28T14:41:09;96719.41;;;10.80
71640;BMP280;60912;48.968;10.124;2023-12-28T14:43:46;96715.38;;;10.81
71640;BMP280;60912;48.968;10.124;2023-12-28T14:46:23;96703.25;;;10.84
71640;BMP280;60912;48.968;10.124;2023-12-28T14:49:14;96697.97;;;10.65
71640;BMP280;60912;48.968;10.124;2023-12-28T14:52:27;96699.44;;;10.66
71640;BMP280;60912;48.968;10.124;2023-12-28T14:55:24;96695.09;;;10.71
71640;BMP280;60912;48.968;10.124;2023-12-28T14:57:58;96685.72;;;10.74
71640;BMP280;60912;48.968;10.124;2023-12-28T15:03:33;96685.53;;;10.72
71640;BMP280;60912;48.968;10.124;2023-12-28T15:06:46;96690.47;;;10.66
71640;BMP280;60912;48.968;10.124;2023-12-28T15:09:36;96691.34;;;10.61
71640;BMP280;60912;48.968;10.124;2023-12-28T15:12:07;96695.38;;;10.60
71640;BMP280;60912;48.968;10.124;2023-12-28T15:15:09;96696.03;;;10.53
71640;BMP280;60912;48.968;10.124;2023-12-28T15:17:46;96691.22;;;10.46
71640;BMP280;60912;48.968;10.124;2023-12-28T15:20:35;96692.22;;;10.56
71640;BMP280;60912;48.968;10.124;2023-12-28T15:23:17;96691.34;;;10.61
71640;BMP280;60912;48.968;10.124;2023-12-28T15:25:54;96670.22;;;10.43
71640;BMP280;60912;48.968;10.124;2023-12-28T15:28:33;96677.66;;;10.48
71640;BMP280;60912;48.968;10.124;2023-12-28T15:31:14;96677.56;;;10.40
71640;BMP280;60912;48.968;10.124;2023-12-28T15:33:42;96666.91;;;10.37
71640;BMP280;60912;48.968;10.124;2023-12-28T15:36:36;96665.47;;;10.43
71640;BMP280;60912;48.968;10.124;2023-12-28T15:39:04;96661.97;;;10.43
71640;BMP280;60912;48.968;10.124;2023-12-28T15:41:36;96662.59;;;10.49
71640;BMP280;60912;48.968;10.124;2023-12-28T15:44:04;96666.78;;;10.50
71640;BMP280;60912;48.968;10.124;2023-12-28T15:46:39;96669.19;;;10.46
71640;BMP280;60912;48.968;10.124;2023-12-28T15:49:06;96671.84;;;10.38
71640;BMP280;60912;48.968;10.124;2023-12-28T15:51:37;96672.00;;;10.33
71640;BMP280;60912;48.968;10.124;2023-12-28T15:54:03;96666.09;;;10.29
71640;BMP280;60912;48.968;10.124;2023-12-28T15:56:39;96670.31;;;10.30
71640;BMP280;60912;48.968;10.124;2023-12-28T15:59:08;96686.84;;;10.30
71640;BMP280;60912;48.968;10.124;2023-12-28T16:01:39;96680.91;;;10.26
71640;BMP280;60912;48.968;10.124;2023-12-28T16:04:10;96678.59;;;10.30
71640;BMP280;60912;48.968;10.124;2023-12-28T16:06:48;96682.25;;;10.25
71640;BMP280;60912;48.968;10.124;2023-12-28T16:09:22;96685.22;;;10.13
71640;BMP280;60912;48.968;10.124;2023-12-28T16:12:39;96677.53;;;10.12
71640;BMP280;60912;48.968;10.124;2023-12-28T16:15:13;96676.97;;;10.13
71640;BMP280;60912;48.968;10.124;2023-12-28T16:17:42;96665.59;;;10.17
71640;BMP280;60912;48.968;10.124;2023-12-28T16:20:30;96662.31;;;10.18